createdAt,value
2022-12-04T00:02:25.424Z,44.90
2022-12-04T00:04:51.986Z,45.43
2022-12-04T00:07:18.586Z,41.63
2022-12-04T00:09:45.273Z,43.70
2022-12-04T00:12:11.743Z,42.63
2022-12-04T00:15:00.780Z,36.23
2022-12-04T00:17:24.645Z,38.87
2022-12-04T00:19:51.090Z,45.00
2022-12-04T00:22:17.528Z,42.67
2022-12-04T00:24:44.138Z,35.70
2022-12-04T00:27:10.685Z,39.63
2022-12-04T00:29:37.118Z,41.37
2022-12-04T00:32:03.756Z,43.67
2022-12-04T00:34:30.287Z,41.50
2022-12-04T00:36:56.746Z,40.77
2022-12-04T00:39:23.198Z,32.97
2022-12-04T00:41:49.668Z,39.20
2022-12-04T00:44:16.108Z,34.67
2022-12-04T00:46:42.877Z,31.60
2022-12-04T00:49:09.354Z,36.00
2022-12-04T00:51:35.855Z,34.53
2022-12-04T00:54:02.387Z,31.13
2022-12-04T00:56:29.759Z,30.37
2022-12-04T00:58:58.761Z,32.37
2022-12-04T01:01:26.207Z,27.97
2022-12-04T01:03:54.820Z,33.93
2022-12-04T01:06:25.135Z,32.67
2022-12-04T01:08:53.367Z,33.07
2022-12-04T01:11:20.795Z,27.17
2022-12-04T01:13:47.672Z,31.47
2022-12-04T01:16:24.314Z,29.23
2022-12-04T01:18:51.557Z,27.77
2022-12-04T01:21:18.829Z,27.83
2022-12-04T01:23:45.691Z,26.07
2022-12-04T01:26:12.857Z,26.37
2022-12-04T01:28:39.802Z,25.13
2022-12-04T01:31:15.904Z,26.97
2022-12-04T01:33:44.000Z,29.27
2022-12-04T01:36:16.285Z,29.40
2022-12-04T01:38:43.658Z,29.47
2022-12-04T01:41:12.385Z,27.10
2022-12-04T01:43:39.589Z,27.33
2022-12-04T01:46:07.610Z,28.40
2022-12-04T01:48:37.470Z,26.63
2022-12-04T01:51:08.380Z,26.23
2022-12-04T01:53:38.303Z,23.27
2022-12-04T01:56:05.250Z,25.30
2022-12-04T01:58:36.358Z,25.60
2022-12-04T02:01:09.069Z,26.13
2022-12-04T02:03:37.700Z,26.47
2022-12-04T02:06:04.797Z,27.43
2022-12-04T02:08:32.102Z,29.77
2022-12-04T02:11:29.550Z,25.50
2022-12-04T02:14:25.874Z,22.17
2022-12-04T02:17:19.063Z,28.63
2022-12-04T02:20:04.843Z,22.43
2022-12-04T02:22:52.451Z,25.63
2022-12-04T02:25:31.948Z,26.67
2022-12-04T02:28:08.092Z,28.73
2022-12-04T02:30:38.966Z,26.53
2022-12-04T02:33:17.852Z,27.23
2022-12-04T02:35:55.410Z,29.80
2022-12-04T02:38:37.332Z,26.70
2022-12-04T02:41:13.223Z,25.67
2022-12-04T02:43:42.328Z,27.77
2022-12-04T02:46:14.980Z,26.50
2022-12-04T02:48:45.442Z,27.33
2022-12-04T02:51:14.824Z,26.27
2022-12-04T02:53:46.816Z,26.93
2022-12-04T02:56:17.785Z,28.13
2022-12-04T02:58:46.560Z,27.33
2022-12-04T03:01:19.946Z,27.37
2022-12-04T03:04:04.832Z,27.87
2022-12-04T03:06:35.679Z,26.90
2022-12-04T03:09:11.792Z,28.93
2022-12-04T03:11:40.408Z,28.30
2022-12-04T03:14:20.441Z,24.40
2022-12-04T03:16:50.035Z,27.63
2022-12-04T03:19:21.402Z,27.40
2022-12-04T03:22:02.725Z,26.93
2022-12-04T03:24:38.989Z,28.63
2022-12-04T03:27:17.485Z,28.97
2022-12-04T03:29:51.828Z,30.73
2022-12-04T03:32:43.250Z,30.57
2022-12-04T03:35:15.655Z,28.37
2022-12-04T03:38:00.632Z,31.60
2022-12-04T03:40:57.117Z,31.00
2022-12-04T03:43:31.819Z,29.90
2022-12-04T03:46:24.240Z,29.73
2022-12-04T03:48:56.995Z,27.87
2022-12-04T03:51:32.033Z,29.50
2022-12-04T03:54:08.156Z,26.43
2022-12-04T03:56:39.952Z,29.70
2022-12-04T03:59:17.167Z,30.87
2022-12-04T04:01:48.637Z,29.83
2022-12-04T04:04:25.764Z,29.73
2022-12-04T04:07:02.928Z,29.17
2022-12-04T04:09:35.090Z,27.63
2022-12-04T04:12:14.024Z,28.10
2022-12-04T04:15:09.100Z,26.07
2022-12-04T04:17:59.522Z,30.33
2022-12-04T04:21:05.880Z,25.90
2022-12-04T04:23:56.075Z,28.23
2022-12-04T04:26:24.129Z,31.17
2022-12-04T04:28:50.575Z,29.57
2022-12-04T04:31:32.545Z,29.60
2022-12-04T04:34:07.981Z,30.87
2022-12-04T04:36:55.754Z,29.90
2022-12-04T04:39:38.315Z,30.37
2022-12-04T04:42:16.880Z,28.60
2022-12-04T04:44:54.069Z,29.47
2022-12-04T04:47:32.459Z,28.50
2022-12-04T04:50:03.068Z,28.87
2022-12-04T04:52:31.212Z,27.83
2022-12-04T04:55:00.511Z,29.80
2022-12-04T04:57:35.663Z,28.77
2022-12-04T05:00:09.665Z,28.53
2022-12-04T05:02:36.453Z,30.13
2022-12-04T05:05:03.687Z,30.80
2022-12-04T05:07:30.182Z,29.60
2022-12-04T05:09:56.898Z,29.17
2022-12-04T05:12:23.644Z,28.73
2022-12-04T05:14:50.413Z,32.93
2022-12-04T05:17:17.264Z,30.13
2022-12-04T05:19:59.072Z,29.33
2022-12-04T05:22:31.951Z,30.87
2022-12-04T05:24:59.287Z,32.60
2022-12-04T05:27:27.732Z,30.73
2022-12-04T05:29:58.708Z,32.20
2022-12-04T05:32:28.169Z,32.23
2022-12-04T05:34:56.109Z,29.43
2022-12-04T05:37:23.360Z,27.90
2022-12-04T05:39:49.915Z,31.27
2022-12-04T05:42:17.021Z,30.67
2022-12-04T05:44:43.484Z,33.20
2022-12-04T05:47:10.414Z,34.43
2022-12-04T05:49:37.242Z,30.10
2022-12-04T05:52:05.117Z,32.93
2022-12-04T05:54:31.718Z,29.57
2022-12-04T05:56:58.439Z,29.93
2022-12-04T05:59:24.893Z,33.67
2022-12-04T06:01:51.376Z,31.23
2022-12-04T06:04:18.026Z,31.33
2022-12-04T06:06:44.707Z,31.60
2022-12-04T06:09:11.757Z,29.33
2022-12-04T06:11:40.363Z,29.17
2022-12-04T06:14:08.913Z,30.27
2022-12-04T06:16:38.365Z,29.50
2022-12-04T06:19:19.048Z,30.57
2022-12-04T06:21:47.464Z,28.33
2022-12-04T06:24:17.293Z,31.67
2022-12-04T06:27:11.140Z,27.67
2022-12-04T06:29:30.923Z,27.93
2022-12-04T06:31:57.491Z,29.33
2022-12-04T06:34:24.032Z,29.67
2022-12-04T06:36:50.464Z,31.47
2022-12-04T06:39:18.961Z,27.77
2022-12-04T06:41:47.368Z,29.03
2022-12-04T06:44:15.536Z,27.07
2022-12-04T06:46:46.903Z,27.97
2022-12-04T06:49:14.265Z,27.57
2022-12-04T06:51:40.919Z,30.50
2022-12-04T06:54:07.813Z,28.93
2022-12-04T06:56:34.355Z,26.30
2022-12-04T06:59:02.356Z,27.50
2022-12-04T07:01:30.744Z,29.17
2022-12-04T07:03:58.198Z,28.40
2022-12-04T07:06:30.068Z,26.97
2022-12-04T07:09:08.125Z,27.33
2022-12-04T07:11:34.586Z,25.60
2022-12-04T07:14:01.476Z,30.83
2022-12-04T07:16:28.758Z,28.47
2022-12-04T07:18:59.643Z,25.63
2022-12-04T07:21:29.323Z,28.23
2022-12-04T07:23:58.288Z,23.93
2022-12-04T07:26:26.387Z,24.73
2022-12-04T07:28:54.337Z,24.77
2022-12-04T07:31:22.797Z,24.47
2022-12-04T07:33:49.550Z,25.13
2022-12-04T07:36:19.432Z,25.47
2022-12-04T07:38:46.757Z,24.67
2022-12-04T07:41:13.777Z,25.37
2022-12-04T07:43:40.566Z,25.33
2022-12-04T07:46:13.324Z,24.30
2022-12-04T07:48:40.236Z,24.27
2022-12-04T07:51:10.292Z,24.73
2022-12-04T07:53:37.039Z,22.23
2022-12-04T07:56:05.467Z,24.50
2022-12-04T07:58:33.640Z,22.13
2022-12-04T08:01:06.018Z,22.43
2022-12-04T08:03:32.606Z,22.53
2022-12-04T08:06:03.739Z,21.43
2022-12-04T08:08:30.678Z,22.20
2022-12-04T08:10:58.196Z,21.80
2022-12-04T08:13:24.674Z,20.17
2022-12-04T08:15:51.512Z,23.60
2022-12-04T08:18:18.505Z,23.47
2022-12-04T08:20:45.002Z,22.17
2022-12-04T08:23:11.778Z,21.33
2022-12-04T08:25:40.491Z,24.17
2022-12-04T08:28:07.525Z,24.00
2022-12-04T08:30:35.595Z,19.77
2022-12-04T08:33:02.881Z,26.10
2022-12-04T08:35:29.408Z,21.23
2022-12-04T08:37:55.835Z,21.07
2022-12-04T08:40:23.235Z,21.63
2022-12-04T08:42:49.722Z,21.93
2022-12-04T08:45:16.546Z,21.73
2022-12-04T08:47:44.923Z,20.00
2022-12-04T08:50:14.683Z,19.07
2022-12-04T08:52:41.123Z,18.73
2022-12-04T08:55:08.177Z,20.20
2022-12-04T08:57:34.705Z,22.07
2022-12-04T09:00:01.651Z,20.83
2022-12-04T09:02:28.144Z,23.33
2022-12-04T09:04:54.705Z,21.93
2022-12-04T09:07:21.158Z,21.20
2022-12-04T09:09:48.679Z,20.40
2022-12-04T09:12:15.305Z,23.70
2022-12-04T09:14:41.758Z,24.50
2022-12-04T09:17:08.262Z,20.87
2022-12-04T09:19:35.962Z,22.50
2022-12-04T09:22:02.797Z,22.47
2022-12-04T09:24:30.922Z,22.93
2022-12-04T09:26:57.401Z,20.57
2022-12-04T09:29:23.901Z,21.93
2022-12-04T09:31:50.348Z,22.60
2022-12-04T09:34:16.827Z,24.97
2022-12-04T09:36:43.294Z,26.17
2022-12-04T09:39:10.280Z,22.90
2022-12-04T09:41:36.670Z,23.33
2022-12-04T09:44:20.829Z,24.27
2022-12-04T09:46:52.908Z,24.37
2022-12-04T09:49:29.920Z,22.30
2022-12-04T09:52:02.209Z,24.33
2022-12-04T09:54:34.950Z,24.03
2022-12-04T09:57:12.358Z,26.67
2022-12-04T09:59:38.848Z,24.00
2022-12-04T10:02:52.616Z,25.93
2022-12-04T10:05:48.124Z,25.97
2022-12-04T10:08:21.333Z,26.83
2022-12-04T10:11:01.591Z,26.17
2022-12-04T10:14:03.278Z,25.03
2022-12-04T10:16:58.687Z,27.33
2022-12-04T10:20:02.535Z,23.00
2022-12-04T10:22:45.577Z,27.80
2022-12-04T10:25:18.837Z,25.90
2022-12-04T10:27:53.700Z,27.33
2022-12-04T10:30:22.539Z,28.63
2022-12-04T10:32:56.526Z,30.20
2022-12-04T10:35:31.531Z,29.97
2022-12-04T10:38:11.198Z,29.77
2022-12-04T10:40:48.826Z,28.83
2022-12-04T10:43:32.197Z,26.33
2022-12-04T10:45:58.666Z,31.47
2022-12-04T10:48:37.108Z,28.70
2022-12-04T10:51:03.978Z,31.90
2022-12-04T10:53:34.664Z,29.90
2022-12-04T10:56:11.356Z,28.03
2022-12-04T10:58:37.832Z,30.67
2022-12-04T11:01:07.087Z,30.73
2022-12-04T11:03:34.875Z,33.03
2022-12-04T11:06:06.730Z,29.47
2022-12-04T11:08:42.511Z,28.10
2022-12-04T11:11:12.969Z,31.83
2022-12-04T11:13:40.143Z,30.47
2022-12-04T11:16:07.635Z,29.53
2022-12-04T11:18:46.321Z,26.83
2022-12-04T11:21:17.437Z,29.03
2022-12-04T11:23:47.905Z,29.50
2022-12-04T11:26:15.195Z,28.97
2022-12-04T11:28:52.186Z,31.03
2022-12-04T11:31:21.452Z,26.63
2022-12-04T11:34:01.672Z,25.63
2022-12-04T11:36:32.203Z,25.03
2022-12-04T11:39:07.395Z,29.90
2022-12-04T11:41:34.655Z,25.83
2022-12-04T11:44:02.257Z,25.40
2022-12-04T11:46:33.845Z,24.00
2022-12-04T11:49:03.243Z,26.07
2022-12-04T11:51:50.089Z,25.00
2022-12-04T11:54:33.858Z,22.37
2022-12-04T11:57:21.921Z,29.50
2022-12-04T12:00:03.691Z,28.77
2022-12-04T12:02:57.469Z,25.17
2022-12-04T12:05:44.643Z,36.63
2022-12-04T12:08:17.026Z,284.83
2022-12-04T12:11:03.000Z,251.13
2022-12-04T12:13:48.032Z,389.77
2022-12-04T12:16:51.366Z,523.17
2022-12-04T12:19:42.308Z,58.13
2022-12-04T12:22:26.479Z,39.33
2022-12-04T12:24:59.421Z,32.10
2022-12-04T12:27:32.259Z,24.90
2022-12-04T12:30:04.390Z,29.33
2022-12-04T12:32:53.799Z,30.97
2022-12-04T12:35:26.340Z,33.93
2022-12-04T12:37:56.122Z,33.70
2022-12-04T12:40:28.943Z,26.53
2022-12-04T12:43:01.180Z,22.53
2022-12-04T12:45:33.773Z,29.10
2022-12-04T12:48:09.296Z,26.43
2022-12-04T12:50:44.192Z,23.57
2022-12-04T12:53:16.731Z,25.37
2022-12-04T12:55:48.240Z,33.90
2022-12-04T12:58:21.709Z,27.33
2022-12-04T13:01:19.633Z,26.33
2022-12-04T13:04:04.840Z,25.30
2022-12-04T13:06:37.720Z,27.70
2022-12-04T13:09:17.991Z,24.40
2022-12-04T13:11:47.878Z,25.97
2022-12-04T13:14:14.623Z,27.53
2022-12-04T13:16:45.969Z,23.90
2022-12-04T13:19:24.805Z,26.83
2022-12-04T13:22:08.361Z,28.33
2022-12-04T13:24:53.629Z,26.37
2022-12-04T13:27:36.512Z,26.20
2022-12-04T13:30:17.939Z,26.30
2022-12-04T13:33:03.176Z,30.70
2022-12-04T13:35:57.510Z,28.73
2022-12-04T13:39:11.651Z,26.60
2022-12-04T13:41:39.276Z,25.97
2022-12-04T13:44:33.807Z,30.47
2022-12-04T13:47:03.590Z,29.03
2022-12-04T13:49:35.843Z,29.03
2022-12-04T13:52:06.109Z,27.07
2022-12-04T13:54:35.712Z,34.80
2022-12-04T13:57:17.206Z,33.87
2022-12-04T13:59:45.028Z,28.07
2022-12-04T14:02:35.088Z,26.47
2022-12-04T14:05:06.547Z,26.90
2022-12-04T14:07:37.170Z,26.43
2022-12-04T14:10:35.604Z,28.00
2022-12-04T14:13:16.008Z,28.03
2022-12-04T14:15:42.595Z,25.53
2022-12-04T14:18:08.984Z,26.43
2022-12-04T14:20:35.708Z,26.27
2022-12-04T14:23:26.100Z,30.90
2022-12-04T14:25:56.983Z,26.97
2022-12-04T14:28:37.342Z,29.53
2022-12-04T14:31:08.101Z,28.73
2022-12-04T14:34:01.927Z,28.10
2022-12-04T14:36:33.485Z,29.23
2022-12-04T14:39:26.150Z,27.50
2022-12-04T14:42:03.462Z,31.77
2022-12-04T14:44:31.120Z,32.10
2022-12-04T14:47:08.493Z,30.37
2022-12-04T14:49:51.337Z,32.87
2022-12-04T14:52:48.605Z,29.93
2022-12-04T14:55:36.901Z,36.17
2022-12-04T14:58:30.470Z,30.27
2022-12-04T15:00:59.381Z,37.20
2022-12-04T15:03:29.479Z,35.77
2022-12-04T15:06:06.128Z,36.33
2022-12-04T15:08:32.953Z,30.00
2022-12-04T15:11:17.879Z,28.73
2022-12-04T15:13:44.347Z,28.60
2022-12-04T15:16:17.317Z,33.60
2022-12-04T15:18:58.505Z,39.13
2022-12-04T15:21:34.249Z,27.50
2022-12-04T15:24:00.756Z,36.93
2022-12-04T15:26:28.206Z,38.77
2022-12-04T15:28:58.495Z,45.67
2022-12-04T15:31:35.232Z,39.07
2022-12-04T15:34:06.320Z,35.40
2022-12-04T15:37:00.750Z,31.03
2022-12-04T15:39:29.665Z,28.83
2022-12-04T15:42:17.018Z,30.43
2022-12-04T15:45:01.062Z,29.77
2022-12-04T15:47:50.681Z,32.30
2022-12-04T15:50:17.095Z,26.47
2022-12-04T15:52:58.514Z,29.00
2022-12-04T15:55:27.216Z,29.17
2022-12-04T15:58:00.328Z,31.47
2022-12-04T16:00:36.671Z,28.90
2022-12-04T16:03:23.004Z,25.27
2022-12-04T16:05:49.551Z,26.80
2022-12-04T16:08:29.022Z,27.57
2022-12-04T16:11:02.009Z,28.53
2022-12-04T16:13:32.497Z,28.90
2022-12-04T16:16:00.153Z,26.03
2022-12-04T16:18:28.519Z,24.43
2022-12-04T16:20:56.014Z,26.67
2022-12-04T16:23:26.455Z,29.50
2022-12-04T16:25:53.776Z,29.00
2022-12-04T16:28:20.483Z,29.70
2022-12-04T16:30:47.385Z,34.87
2022-12-04T16:33:15.693Z,31.27
2022-12-04T16:35:42.565Z,28.37
2022-12-04T16:38:14.732Z,28.80
2022-12-04T16:40:41.480Z,24.27
2022-12-04T16:43:12.379Z,29.23
2022-12-04T16:45:44.635Z,27.30
2022-12-04T16:48:11.112Z,21.47
2022-12-04T16:50:37.571Z,23.20
2022-12-04T16:53:04.108Z,22.80
2022-12-04T16:55:36.629Z,23.13
2022-12-04T16:58:04.573Z,25.97
2022-12-04T17:00:31.102Z,24.53
2022-12-04T17:02:58.472Z,26.57
2022-12-04T17:05:27.530Z,28.63
2022-12-04T17:07:54.995Z,27.37
2022-12-04T17:10:24.193Z,25.33
2022-12-04T17:12:54.053Z,30.33
2022-12-04T17:15:20.666Z,24.57
2022-12-04T17:17:47.458Z,25.67
2022-12-04T17:20:16.370Z,26.10
2022-12-04T17:22:43.083Z,23.13
2022-12-04T17:25:10.875Z,25.37
2022-12-04T17:27:37.393Z,27.17
2022-12-04T17:30:05.770Z,26.37
2022-12-04T17:32:34.775Z,26.10
2022-12-04T17:35:02.479Z,30.03
2022-12-04T17:37:29.126Z,28.63
2022-12-04T17:39:55.651Z,30.40
2022-12-04T17:42:28.380Z,30.37
2022-12-04T17:44:55.205Z,33.97
2022-12-04T17:47:21.950Z,35.50
2022-12-04T17:49:48.511Z,34.80
2022-12-04T17:52:15.212Z,37.80
2022-12-04T17:54:41.778Z,37.87
2022-12-04T17:57:08.288Z,37.23
2022-12-04T17:59:34.755Z,41.70
2022-12-04T18:02:01.216Z,40.87
2022-12-04T18:04:27.796Z,40.67
2022-12-04T18:06:56.298Z,38.50
2022-12-04T18:09:22.807Z,42.17
2022-12-04T18:11:49.346Z,39.17
2022-12-04T18:14:18.462Z,41.50
2022-12-04T18:16:47.670Z,41.80
2022-12-04T18:19:14.894Z,66.17
2022-12-04T18:21:41.861Z,141.80
2022-12-04T18:24:08.882Z,119.53
2022-12-04T18:26:39.082Z,126.00
2022-12-04T18:29:06.325Z,79.20
2022-12-04T18:31:33.606Z,241.30
2022-12-04T18:34:00.150Z,189.97
2022-12-04T18:36:29.398Z,485.50
2022-12-04T18:38:58.540Z,346.90
2022-12-04T18:41:26.337Z,128.17
2022-12-04T18:43:53.040Z,85.77
2022-12-04T18:46:20.520Z,44.60
2022-12-04T18:48:48.855Z,38.10
2022-12-04T18:51:17.781Z,38.37
2022-12-04T18:53:44.377Z,41.23
2022-12-04T18:56:10.937Z,46.50
2022-12-04T18:58:37.450Z,44.13
2022-12-04T19:01:12.486Z,37.97
2022-12-04T19:03:39.144Z,42.90
2022-12-04T19:06:05.964Z,39.53
2022-12-04T19:08:35.742Z,36.87
2022-12-04T19:11:12.829Z,37.17
2022-12-04T19:13:39.549Z,40.13
2022-12-04T19:16:11.895Z,42.73
2022-12-04T19:18:38.376Z,37.03
2022-12-04T19:21:06.419Z,33.87
2022-12-04T19:23:32.883Z,35.70
2022-12-04T19:26:00.525Z,41.77
2022-12-04T19:28:27.617Z,32.03
2022-12-04T19:30:55.242Z,44.83
2022-12-04T19:33:23.428Z,33.87
2022-12-04T19:35:58.169Z,37.03
2022-12-04T19:38:25.217Z,31.17
2022-12-04T19:41:12.126Z,35.40
2022-12-04T19:46:33.715Z,29.63
2022-12-04T19:49:03.457Z,33.10
2022-12-04T19:51:33.111Z,35.40
2022-12-04T19:54:01.148Z,32.13
2022-12-04T19:56:29.398Z,32.43
2022-12-04T19:58:58.151Z,30.13
2022-12-04T20:01:28.320Z,32.70
2022-12-04T20:03:55.881Z,33.30
2022-12-04T20:06:24.950Z,32.93
2022-12-04T20:08:56.883Z,32.60
2022-12-04T20:11:24.011Z,32.73
2022-12-04T20:13:54.012Z,35.00
2022-12-04T20:16:20.600Z,38.57
2022-12-04T20:18:47.212Z,40.70
2022-12-04T20:21:14.416Z,42.90
2022-12-04T20:23:43.423Z,37.17
2022-12-04T20:26:12.283Z,32.70
2022-12-04T20:28:39.147Z,35.37
2022-12-04T20:31:18.154Z,52.63
2022-12-04T20:33:47.427Z,42.47
2022-12-04T20:36:15.605Z,35.07
2022-12-04T20:38:42.659Z,34.23
2022-12-04T20:41:13.236Z,31.30
2022-12-04T20:43:39.745Z,34.10
2022-12-04T20:46:23.007Z,42.17
2022-12-04T20:48:50.910Z,36.73
2022-12-04T20:51:19.441Z,36.43
2022-12-04T20:53:47.364Z,35.37
2022-12-04T20:56:14.043Z,36.33
2022-12-04T20:58:41.122Z,34.33
2022-12-04T21:01:10.717Z,38.13
2022-12-04T21:03:37.207Z,37.03
2022-12-04T21:06:04.548Z,37.40
2022-12-04T21:08:49.587Z,44.97
2022-12-04T21:11:16.027Z,41.17
2022-12-04T21:14:00.842Z,42.40
2022-12-04T21:16:27.380Z,31.93
2022-12-04T21:18:53.930Z,62.43
2022-12-04T21:21:20.507Z,44.03
2022-12-04T21:23:47.021Z,43.60
2022-12-04T21:26:14.328Z,38.30
2022-12-04T21:28:40.774Z,31.73
2022-12-04T21:31:07.286Z,35.67
2022-12-04T21:33:34.119Z,33.23
2022-12-04T21:36:02.726Z,33.73
2022-12-04T21:38:32.640Z,35.07
2022-12-04T21:40:59.106Z,32.40
2022-12-04T21:43:28.384Z,34.00
2022-12-04T21:46:09.007Z,35.83
2022-12-04T21:48:37.043Z,31.60
2022-12-04T21:51:21.194Z,29.33
2022-12-04T21:53:54.871Z,29.70
2022-12-04T21:56:22.678Z,29.90
2022-12-04T21:58:49.775Z,32.40
2022-12-04T22:01:17.930Z,29.50
2022-12-04T22:03:44.490Z,33.77
2022-12-04T22:06:11.579Z,32.03
2022-12-04T22:08:40.827Z,32.03
2022-12-04T22:11:09.599Z,29.00
2022-12-04T22:13:37.477Z,29.77
2022-12-04T22:16:11.066Z,29.17
2022-12-04T22:18:37.669Z,28.33
2022-12-04T22:21:06.992Z,29.30
2022-12-04T22:23:34.252Z,32.10
2022-12-04T22:26:08.794Z,29.73
2022-12-04T22:28:35.610Z,30.30
2022-12-04T22:31:16.874Z,29.00
2022-12-04T22:33:47.401Z,28.03
2022-12-04T22:36:19.844Z,28.47
2022-12-04T22:39:08.228Z,30.70
2022-12-04T22:41:33.169Z,30.70
2022-12-04T22:43:59.823Z,29.70
2022-12-04T22:46:26.636Z,28.67
2022-12-04T22:48:53.287Z,27.50
2022-12-04T22:51:21.518Z,31.57
2022-12-04T22:53:54.294Z,35.23
2022-12-04T22:56:27.012Z,33.93
2022-12-04T22:58:58.199Z,33.03
2022-12-04T23:01:33.478Z,31.47
2022-12-04T23:04:01.162Z,44.83
2022-12-04T23:06:29.584Z,54.03
2022-12-04T23:08:58.548Z,41.30
2022-12-04T23:11:26.977Z,36.70
2022-12-04T23:13:55.920Z,38.93
2022-12-04T23:16:24.230Z,30.90
2022-12-04T23:18:50.971Z,33.53
2022-12-04T23:21:18.951Z,31.07
2022-12-04T23:23:47.305Z,33.60
2022-12-04T23:26:16.335Z,29.13
2022-12-04T23:28:43.086Z,30.33
2022-12-04T23:31:13.204Z,31.70
2022-12-04T23:33:40.708Z,28.70
2022-12-04T23:36:09.239Z,25.03
2022-12-04T23:38:37.924Z,29.27
2022-12-04T23:41:13.291Z,30.47
2022-12-04T23:43:40.326Z,28.37
2022-12-04T23:46:11.265Z,31.53
2022-12-04T23:48:39.473Z,31.97
2022-12-04T23:51:06.775Z,31.43
2022-12-04T23:53:33.297Z,30.90
2022-12-04T23:56:04.349Z,29.50
2022-12-04T23:58:32.238Z,32.00
